Brackley, United Kingdom
Current Conditions -  °F | °C
As of 10:20 PM on Thursday 18 Dec 2014 (Local Time) from EGTK Reporting Station
Drizzle Drizzle  
Wind Chill: 52°   Ceiling: 700
Heat Index: 52°   Visibility: 6mi
Dew Point: 52°   Wind: 21mph
Humidity: 100%   Direction: 230°SW
Pressure: 29.77"   Gusts: NA
Location:  52.03°N, 1.15°W
Report Text: EGTK 182220Z 23018KT 9000 DZ SCT005 BKN007 OVC009 11/11 Q1008
Loading
Personal Weather Stations






























Interactive Weather Map New forecast layout! Learn more

10-Day Weather Forecast

Advertisements
Track Severe Weather on mobile